createdAt,value
2023-03-29T00:00:05.926Z,935.00
2023-03-29T00:01:05.964Z,927.00
2023-03-29T00:02:06.019Z,940.00
2023-03-29T00:03:06.129Z,936.00
2023-03-29T00:04:06.284Z,938.00
2023-03-29T00:05:06.165Z,927.00
2023-03-29T00:06:06.253Z,925.00
2023-03-29T00:07:06.265Z,914.00
2023-03-29T00:08:06.332Z,915.00
2023-03-29T00:09:06.385Z,913.00
2023-03-29T00:10:06.446Z,930.00
2023-03-29T00:11:06.468Z,914.00
2023-03-29T00:12:06.511Z,898.00
2023-03-29T00:13:06.531Z,914.00
2023-03-29T00:14:06.570Z,908.00
2023-03-29T00:15:06.603Z,901.00
2023-03-29T00:16:06.618Z,911.00
2023-03-29T00:17:06.722Z,904.00
2023-03-29T00:18:06.745Z,914.00
2023-03-29T00:19:06.716Z,928.00
2023-03-29T00:20:06.738Z,916.00
2023-03-29T00:21:06.755Z,909.00
2023-03-29T00:22:06.803Z,907.00
2023-03-29T00:23:06.868Z,911.00
2023-03-29T00:24:06.894Z,927.00
2023-03-29T00:25:06.907Z,911.00
2023-03-29T00:27:07.013Z,918.00
2023-03-29T00:28:07.027Z,925.00
2023-03-29T00:29:07.035Z,901.00
2023-03-29T00:30:07.044Z,903.00
2023-03-29T00:31:07.093Z,886.00
2023-03-29T00:32:07.069Z,881.00
2023-03-29T00:33:07.091Z,875.00
2023-03-29T00:34:07.101Z,876.00
2023-03-29T00:35:07.114Z,904.00
2023-03-29T00:36:07.288Z,879.00
2023-03-29T00:37:07.134Z,880.00
2023-03-29T00:38:07.131Z,884.00
2023-03-29T00:39:07.152Z,897.00
2023-03-29T00:40:07.155Z,890.00
2023-03-29T00:41:07.162Z,891.00
2023-03-29T00:42:07.208Z,884.00
2023-03-29T00:43:07.217Z,896.00
2023-03-29T00:44:07.225Z,889.00
2023-03-29T00:45:07.250Z,891.00
2023-03-29T00:46:07.256Z,890.00
2023-03-29T00:47:07.304Z,869.00
2023-03-29T00:48:07.394Z,883.00
2023-03-29T00:49:07.343Z,881.00
2023-03-29T00:50:07.328Z,872.00
2023-03-29T00:51:09.789Z,877.00
2023-03-29T00:52:07.559Z,886.00
2023-03-29T00:53:07.581Z,876.00
2023-03-29T00:54:07.613Z,867.00
2023-03-29T00:55:07.619Z,878.00
2023-03-29T00:56:07.627Z,876.00
2023-03-29T00:57:07.729Z,866.00
2023-03-29T00:58:07.645Z,863.00
2023-03-29T00:59:07.659Z,863.00
2023-03-29T01:00:07.721Z,857.00
2023-03-29T01:01:07.705Z,869.00
2023-03-29T01:02:07.819Z,843.00
2023-03-29T01:03:07.865Z,853.00
2023-03-29T01:04:07.796Z,869.00
2023-03-29T01:05:07.757Z,865.00
2023-03-29T01:06:07.780Z,868.00
2023-03-29T01:07:07.829Z,869.00
2023-03-29T01:08:07.839Z,866.00
2023-03-29T01:09:07.869Z,864.00
2023-03-29T01:10:07.868Z,867.00
2023-03-29T01:11:07.896Z,868.00
2023-03-29T01:12:07.899Z,861.00
2023-03-29T01:13:07.949Z,857.00
2023-03-29T01:14:07.940Z,858.00
2023-03-29T01:15:07.966Z,854.00
2023-03-29T01:16:08.074Z,867.00
2023-03-29T01:17:07.999Z,869.00
2023-03-29T01:18:08.044Z,857.00
2023-03-29T01:19:08.054Z,828.00
2023-03-29T01:20:08.078Z,839.00
2023-03-29T01:21:08.107Z,841.00
2023-03-29T01:22:08.152Z,840.00
2023-03-29T01:23:08.191Z,841.00
2023-03-29T01:24:08.198Z,847.00
2023-03-29T01:25:08.216Z,829.00
2023-03-29T01:26:08.231Z,827.00
2023-03-29T01:27:08.271Z,835.00
2023-03-29T01:28:08.300Z,841.00
2023-03-29T01:29:08.311Z,838.00
2023-03-29T01:30:08.335Z,843.00
2023-03-29T01:31:08.394Z,847.00
2023-03-29T01:32:08.441Z,844.00
2023-03-29T01:33:08.479Z,846.00
2023-03-29T01:34:08.486Z,847.00
2023-03-29T01:35:08.503Z,846.00
2023-03-29T01:36:08.543Z,852.00
2023-03-29T01:37:08.549Z,838.00
2023-03-29T01:38:08.555Z,842.00
2023-03-29T01:39:08.556Z,844.00
2023-03-29T01:40:08.579Z,843.00
2023-03-29T01:41:08.580Z,835.00
2023-03-29T01:42:08.600Z,832.00
2023-03-29T01:43:08.614Z,830.00
2023-03-29T01:44:08.632Z,825.00
2023-03-29T01:45:08.626Z,835.00
2023-03-29T01:46:08.667Z,835.00
2023-03-29T01:47:08.667Z,837.00
2023-03-29T01:48:08.666Z,824.00
2023-03-29T01:49:08.661Z,820.00
2023-03-29T01:50:08.700Z,824.00
2023-03-29T01:51:08.707Z,840.00
2023-03-29T01:52:08.710Z,827.00
2023-03-29T01:53:08.750Z,834.00
2023-03-29T01:54:08.768Z,834.00
2023-03-29T01:55:08.789Z,826.00
2023-03-29T01:56:08.780Z,833.00
2023-03-29T01:57:08.838Z,819.00
2023-03-29T01:58:08.809Z,827.00
2023-03-29T01:59:08.818Z,826.00
2023-03-29T02:00:08.863Z,818.00
2023-03-29T02:01:08.903Z,813.00
2023-03-29T02:02:08.977Z,838.00
2023-03-29T02:03:09.060Z,813.00
2023-03-29T02:04:09.057Z,836.00
2023-03-29T02:05:09.069Z,819.00
2023-03-29T02:06:09.110Z,822.00
2023-03-29T02:07:09.103Z,833.00
2023-03-29T02:08:09.208Z,818.00
2023-03-29T02:09:09.189Z,819.00
2023-03-29T02:10:09.214Z,821.00
2023-03-29T02:11:09.252Z,826.00
2023-03-29T02:12:09.282Z,810.00
2023-03-29T02:13:09.305Z,809.00
2023-03-29T02:14:09.385Z,818.00
2023-03-29T02:15:09.396Z,807.00
2023-03-29T02:16:09.443Z,820.00
2023-03-29T02:17:09.441Z,815.00
2023-03-29T02:18:09.502Z,814.00
2023-03-29T02:19:09.469Z,812.00
2023-03-29T02:20:09.490Z,825.00
2023-03-29T02:21:09.528Z,812.00
2023-03-29T02:22:09.570Z,805.00
2023-03-29T02:23:09.579Z,796.00
2023-03-29T02:24:09.600Z,808.00
2023-03-29T02:25:09.628Z,799.00
2023-03-29T02:26:09.637Z,806.00
2023-03-29T02:27:09.650Z,800.00
2023-03-29T02:28:09.646Z,793.00
2023-03-29T02:29:09.651Z,821.00
2023-03-29T02:30:09.653Z,825.00
2023-03-29T02:31:09.687Z,812.00
2023-03-29T02:32:09.718Z,801.00
2023-03-29T02:33:09.765Z,800.00
2023-03-29T02:34:09.733Z,810.00
2023-03-29T02:35:09.745Z,798.00
2023-03-29T02:36:09.790Z,803.00
2023-03-29T02:37:09.772Z,797.00
2023-03-29T02:38:09.776Z,802.00
2023-03-29T02:39:09.814Z,783.00
2023-03-29T02:40:09.826Z,794.00
2023-03-29T02:41:09.835Z,793.00
2023-03-29T02:42:09.859Z,789.00
2023-03-29T02:43:09.881Z,799.00
2023-03-29T02:44:09.886Z,807.00
2023-03-29T02:45:09.884Z,798.00
2023-03-29T02:46:09.930Z,788.00
2023-03-29T02:47:09.964Z,786.00
2023-03-29T02:48:10.074Z,782.00
2023-03-29T02:49:10.025Z,781.00
2023-03-29T02:50:10.034Z,782.00
2023-03-29T02:51:10.057Z,788.00
2023-03-29T02:52:10.077Z,792.00
2023-03-29T02:53:10.083Z,780.00
2023-03-29T02:54:10.094Z,773.00
2023-03-29T02:55:10.111Z,776.00
2023-03-29T02:56:10.127Z,788.00
2023-03-29T02:57:10.177Z,774.00
2023-03-29T02:58:10.177Z,796.00
2023-03-29T02:59:10.244Z,775.00
2023-03-29T03:00:10.263Z,774.00
2023-03-29T03:01:10.285Z,772.00
2023-03-29T03:02:10.333Z,783.00
2023-03-29T03:03:10.459Z,768.00
2023-03-29T03:04:10.366Z,767.00
2023-03-29T03:05:10.333Z,764.00
2023-03-29T03:06:10.336Z,769.00
2023-03-29T03:07:10.338Z,768.00
2023-03-29T03:08:10.342Z,787.00
2023-03-29T03:09:10.416Z,782.00
2023-03-29T03:10:10.374Z,764.00
2023-03-29T03:11:10.387Z,770.00
2023-03-29T03:12:10.394Z,763.00
2023-03-29T03:13:10.465Z,766.00
2023-03-29T03:14:10.449Z,762.00
2023-03-29T03:15:10.475Z,769.00
2023-03-29T03:16:10.526Z,767.00
2023-03-29T03:17:10.481Z,767.00
2023-03-29T03:18:10.567Z,757.00
2023-03-29T03:19:10.528Z,765.00
2023-03-29T03:20:10.517Z,763.00
2023-03-29T03:21:10.535Z,758.00
2023-03-29T03:22:10.570Z,757.00
2023-03-29T03:23:10.605Z,763.00
2023-03-29T03:24:10.637Z,757.00
2023-03-29T03:25:10.667Z,760.00
2023-03-29T03:26:10.668Z,741.00
2023-03-29T03:27:10.695Z,753.00
2023-03-29T03:28:10.714Z,748.00
2023-03-29T03:29:10.725Z,747.00
2023-03-29T03:30:10.732Z,759.00
2023-03-29T03:31:10.770Z,749.00
2023-03-29T03:32:10.790Z,745.00
2023-03-29T03:33:10.792Z,751.00
2023-03-29T03:34:10.837Z,755.00
2023-03-29T03:35:10.858Z,742.00
2023-03-29T03:36:10.932Z,748.00
2023-03-29T03:37:10.911Z,739.00
2023-03-29T03:38:10.935Z,744.00
2023-03-29T03:39:10.996Z,743.00
2023-03-29T03:40:10.993Z,738.00
2023-03-29T03:41:10.998Z,728.00
2023-03-29T03:42:11.017Z,733.00
2023-03-29T03:43:11.052Z,736.00
2023-03-29T03:44:11.076Z,736.00
2023-03-29T03:45:11.099Z,736.00
2023-03-29T03:46:11.151Z,735.00
2023-03-29T03:47:11.197Z,741.00
2023-03-29T03:48:11.254Z,733.00
2023-03-29T03:49:11.231Z,731.00
2023-03-29T03:50:11.266Z,736.00
2023-03-29T03:51:11.344Z,731.00
2023-03-29T03:52:11.337Z,732.00
2023-03-29T03:53:11.372Z,737.00
2023-03-29T03:54:11.428Z,726.00
2023-03-29T03:55:11.468Z,733.00
2023-03-29T03:56:11.522Z,738.00
2023-03-29T03:57:11.600Z,723.00
2023-03-29T03:58:11.630Z,737.00
2023-03-29T03:59:11.700Z,731.00
2023-03-29T04:00:11.720Z,729.00
2023-03-29T04:01:11.768Z,728.00
2023-03-29T04:02:11.804Z,736.00
2023-03-29T04:03:11.999Z,736.00
2023-03-29T04:04:11.903Z,727.00
2023-03-29T04:05:11.881Z,724.00
2023-03-29T04:06:11.911Z,728.00
2023-03-29T04:07:11.928Z,724.00
2023-03-29T04:08:11.980Z,719.00
2023-03-29T04:09:12.023Z,713.00
2023-03-29T04:10:12.072Z,712.00
2023-03-29T04:11:12.130Z,725.00
2023-03-29T04:12:12.216Z,725.00
2023-03-29T04:13:12.257Z,722.00
2023-03-29T04:14:12.319Z,720.00
2023-03-29T04:15:12.410Z,715.00
2023-03-29T04:16:12.485Z,723.00
2023-03-29T04:17:12.470Z,709.00
2023-03-29T04:18:12.577Z,697.00
2023-03-29T04:19:12.557Z,707.00
2023-03-29T04:20:12.781Z,733.00
2023-03-29T04:21:12.673Z,724.00
2023-03-29T04:22:12.746Z,709.00
2023-03-29T04:23:12.789Z,710.00
2023-03-29T04:24:12.843Z,709.00
2023-03-29T04:25:12.900Z,724.00
2023-03-29T04:26:12.949Z,714.00
2023-03-29T04:27:13.002Z,706.00
2023-03-29T04:28:13.083Z,727.00
2023-03-29T04:29:13.123Z,714.00
2023-03-29T04:30:13.184Z,699.00
2023-03-29T04:31:13.308Z,712.00
2023-03-29T04:32:13.288Z,699.00
2023-03-29T04:33:13.345Z,713.00
2023-03-29T04:34:13.412Z,715.00
2023-03-29T04:35:13.483Z,706.00
2023-03-29T04:36:13.589Z,711.00
2023-03-29T04:37:13.609Z,707.00
2023-03-29T04:38:13.673Z,715.00
2023-03-29T04:39:13.753Z,709.00
2023-03-29T04:40:13.780Z,707.00
2023-03-29T04:41:13.835Z,701.00
2023-03-29T04:42:13.904Z,710.00
2023-03-29T04:43:13.970Z,700.00
2023-03-29T04:44:14.015Z,706.00
2023-03-29T04:45:14.253Z,696.00
2023-03-29T04:46:14.167Z,700.00
2023-03-29T04:47:14.216Z,697.00
2023-03-29T04:48:14.270Z,711.00
2023-03-29T04:49:14.338Z,698.00
2023-03-29T04:50:14.407Z,696.00
2023-03-29T04:51:14.464Z,692.00
2023-03-29T04:52:14.544Z,688.00
2023-03-29T04:53:14.580Z,695.00
2023-03-29T04:54:14.655Z,699.00
2023-03-29T04:55:14.716Z,697.00
2023-03-29T04:56:14.769Z,686.00
2023-03-29T04:57:14.929Z,688.00
2023-03-29T04:58:14.905Z,699.00
2023-03-29T04:59:14.980Z,690.00
2023-03-29T05:00:15.164Z,687.00
2023-03-29T05:01:15.131Z,686.00
2023-03-29T05:02:15.193Z,686.00
2023-03-29T05:03:15.251Z,685.00
2023-03-29T05:04:15.359Z,684.00
2023-03-29T05:05:15.402Z,691.00
2023-03-29T05:06:15.445Z,698.00
2023-03-29T05:07:15.500Z,685.00
2023-03-29T05:08:15.566Z,688.00
2023-03-29T05:09:15.637Z,679.00
2023-03-29T05:10:15.710Z,688.00
2023-03-29T05:11:15.773Z,676.00
2023-03-29T05:12:15.843Z,681.00
2023-03-29T05:13:15.919Z,678.00
2023-03-29T05:14:15.989Z,694.00
2023-03-29T05:15:16.056Z,687.00
2023-03-29T05:16:16.174Z,682.00
2023-03-29T05:17:16.189Z,684.00
2023-03-29T05:18:16.217Z,664.00
2023-03-29T05:19:16.261Z,678.00
2023-03-29T05:20:16.304Z,667.00
2023-03-29T05:21:16.356Z,671.00
2023-03-29T05:22:16.422Z,672.00
2023-03-29T05:23:16.521Z,714.00
2023-03-29T05:24:16.557Z,705.00
2023-03-29T05:25:16.605Z,721.00
2023-03-29T05:26:16.661Z,744.00
2023-03-29T05:27:16.717Z,734.00
2023-03-29T05:28:16.795Z,754.00
2023-03-29T05:29:16.856Z,755.00
2023-03-29T05:30:16.926Z,817.00
2023-03-29T05:31:17.348Z,919.00
2023-03-29T05:32:17.035Z,885.00
2023-03-29T05:33:17.085Z,887.00
2023-03-29T05:34:17.149Z,879.00
2023-03-29T05:35:17.226Z,870.00
2023-03-29T05:36:17.315Z,853.00
2023-03-29T05:37:17.321Z,845.00
2023-03-29T05:38:17.383Z,862.00
2023-03-29T05:39:17.473Z,855.00
2023-03-29T05:40:17.487Z,873.00
2023-03-29T05:41:17.536Z,881.00
2023-03-29T05:42:17.586Z,869.00
2023-03-29T05:43:17.644Z,875.00
2023-03-29T05:44:17.697Z,880.00
2023-03-29T05:45:17.754Z,875.00
2023-03-29T05:46:17.824Z,894.00
2023-03-29T05:47:17.880Z,895.00
2023-03-29T05:48:17.936Z,896.00
2023-03-29T05:49:18.004Z,896.00
2023-03-29T05:50:18.065Z,894.00
2023-03-29T05:51:18.124Z,928.00
2023-03-29T05:52:18.187Z,894.00
2023-03-29T05:53:18.260Z,926.00
2023-03-29T05:54:18.324Z,922.00
2023-03-29T05:55:18.431Z,934.00
2023-03-29T05:56:18.457Z,936.00
2023-03-29T05:57:18.604Z,938.00
2023-03-29T05:58:18.583Z,962.00
2023-03-29T05:59:18.650Z,952.00
2023-03-29T06:00:18.717Z,956.00
2023-03-29T06:01:18.791Z,949.00
2023-03-29T06:02:18.940Z,958.00
2023-03-29T06:03:21.164Z,954.00
2023-03-29T06:04:18.999Z,955.00
2023-03-29T06:05:18.894Z,956.00
2023-03-29T06:06:18.904Z,966.00
2023-03-29T06:07:18.885Z,964.00
2023-03-29T06:08:18.885Z,969.00
2023-03-29T06:09:18.881Z,968.00
2023-03-29T06:10:18.869Z,966.00
2023-03-29T06:11:18.872Z,966.00
2023-03-29T06:12:18.866Z,974.00
2023-03-29T06:13:18.866Z,977.00
2023-03-29T06:14:18.855Z,970.00
2023-03-29T06:15:18.853Z,975.00
2023-03-29T06:16:18.918Z,971.00
2023-03-29T06:17:18.911Z,991.00
2023-03-29T06:18:18.843Z,967.00
2023-03-29T06:19:18.848Z,979.00
2023-03-29T06:20:18.851Z,977.00
2023-03-29T06:21:18.854Z,988.00
2023-03-29T06:22:18.857Z,965.00
2023-03-29T06:23:18.845Z,987.00
2023-03-29T06:24:18.834Z,972.00
2023-03-29T06:25:18.836Z,985.00
2023-03-29T06:26:18.833Z,988.00
2023-03-29T06:27:18.830Z,1010.00
2023-03-29T06:28:18.828Z,1021.00
2023-03-29T06:29:18.829Z,1030.00
2023-03-29T06:30:18.819Z,1019.00
2023-03-29T06:31:18.871Z,1029.00
2023-03-29T06:32:18.807Z,1060.00
2023-03-29T06:33:18.868Z,1087.00
2023-03-29T06:34:18.784Z,1092.00
2023-03-29T06:35:18.781Z,1109.00
2023-03-29T06:36:18.810Z,1109.00
2023-03-29T06:37:18.768Z,1126.00
2023-03-29T06:38:18.773Z,1152.00
2023-03-29T06:39:18.766Z,1168.00
2023-03-29T06:40:18.770Z,1191.00
2023-03-29T06:41:18.768Z,1207.00
2023-03-29T06:42:21.512Z,1232.00
2023-03-29T06:43:18.784Z,1240.00
2023-03-29T06:44:18.784Z,1262.00
2023-03-29T06:45:19.704Z,1285.00
2023-03-29T06:46:18.821Z,1286.00
2023-03-29T06:47:18.821Z,1293.00
2023-03-29T06:48:18.853Z,1300.00
2023-03-29T06:49:18.905Z,1328.00
2023-03-29T06:50:18.913Z,1381.00
2023-03-29T06:51:21.219Z,1405.00
2023-03-29T06:52:18.916Z,1407.00
2023-03-29T06:53:18.908Z,1415.00
2023-03-29T06:54:18.885Z,1435.00
2023-03-29T06:55:18.879Z,1477.00
2023-03-29T06:56:19.779Z,1537.00
2023-03-29T06:57:18.970Z,1558.00
2023-03-29T06:58:18.858Z,1580.00
2023-03-29T06:59:18.837Z,1605.00
2023-03-29T07:00:18.831Z,1618.00
2023-03-29T07:01:18.843Z,1643.00
2023-03-29T07:02:18.794Z,1681.00
2023-03-29T07:03:18.828Z,1717.00
2023-03-29T07:04:18.792Z,1734.00
2023-03-29T07:05:18.893Z,1754.00
2023-03-29T07:06:18.735Z,1776.00
2023-03-29T07:07:18.728Z,1797.00
2023-03-29T07:08:18.762Z,1811.00
2023-03-29T07:09:19.555Z,1833.00
2023-03-29T07:10:18.694Z,1858.00
2023-03-29T07:11:18.701Z,1885.00
2023-03-29T07:12:18.694Z,1892.00
2023-03-29T07:13:18.668Z,1923.00
2023-03-29T07:14:18.654Z,1933.00
2023-03-29T07:15:18.644Z,1954.00
2023-03-29T07:16:18.681Z,1975.00
2023-03-29T07:17:18.620Z,1991.00
2023-03-29T07:18:18.608Z,2009.00
2023-03-29T07:19:18.588Z,2012.00
2023-03-29T07:20:18.574Z,2025.00
2023-03-29T07:21:18.558Z,2047.00
2023-03-29T07:22:19.323Z,2047.00
2023-03-29T07:23:18.550Z,2063.00
2023-03-29T07:24:18.527Z,2053.00
2023-03-29T07:25:18.508Z,2061.00
2023-03-29T07:26:28.806Z,2035.00
2023-03-29T07:27:19.495Z,2036.00
2023-03-29T07:28:25.162Z,2036.00
2023-03-29T07:29:18.463Z,2037.00
2023-03-29T07:30:18.456Z,2039.00
2023-03-29T07:31:18.448Z,2036.00
2023-03-29T07:32:18.460Z,2027.00
2023-03-29T07:33:18.558Z,2005.00
2023-03-29T07:34:18.414Z,1997.00
2023-03-29T07:35:18.412Z,1982.00
2023-03-29T07:36:18.426Z,1978.00
2023-03-29T07:37:18.375Z,1948.00
2023-03-29T07:38:18.441Z,1944.00
2023-03-29T07:39:20.182Z,1923.00
2023-03-29T07:40:18.382Z,1937.00
2023-03-29T07:41:18.321Z,1915.00
2023-03-29T07:42:18.305Z,1897.00
2023-03-29T07:43:18.312Z,1866.00
2023-03-29T07:44:18.342Z,1860.00
2023-03-29T07:45:18.273Z,1857.00
2023-03-29T07:46:19.310Z,1858.00
2023-03-29T07:47:18.266Z,1821.00
2023-03-29T07:48:18.248Z,1796.00
2023-03-29T07:49:19.754Z,1800.00
2023-03-29T07:50:18.229Z,1804.00
2023-03-29T07:51:18.219Z,1795.00
2023-03-29T07:52:18.211Z,1774.00
2023-03-29T07:53:18.211Z,1762.00
2023-03-29T07:54:18.202Z,1751.00
2023-03-29T07:55:18.190Z,1742.00
2023-03-29T07:56:18.176Z,1728.00
2023-03-29T07:57:18.207Z,1710.00
2023-03-29T07:58:18.172Z,1704.00
2023-03-29T07:59:18.163Z,1666.00
2023-03-29T08:00:18.170Z,1660.00
2023-03-29T08:01:19.614Z,1659.00
2023-03-29T08:02:18.151Z,1659.00
2023-03-29T08:03:18.277Z,1654.00
2023-03-29T08:04:18.207Z,1628.00
2023-03-29T08:05:26.027Z,1622.00
2023-03-29T08:06:19.135Z,1623.00
2023-03-29T08:07:18.941Z,1617.00
2023-03-29T08:08:18.132Z,1610.00
2023-03-29T08:09:18.133Z,1587.00
2023-03-29T08:10:18.134Z,1586.00
2023-03-29T08:11:18.142Z,1567.00
2023-03-29T08:12:18.131Z,1545.00
2023-03-29T08:13:18.140Z,1547.00
2023-03-29T08:14:18.140Z,1524.00
2023-03-29T08:15:18.157Z,1533.00
2023-03-29T08:16:18.167Z,1534.00
2023-03-29T08:17:18.136Z,1529.00
2023-03-29T08:18:18.151Z,931.00
2023-03-29T08:19:18.142Z,577.00
2023-03-29T08:20:18.154Z,604.00
2023-03-29T08:21:18.155Z,619.00
2023-03-29T08:22:18.165Z,662.00
2023-03-29T08:23:18.208Z,729.00
2023-03-29T08:24:20.421Z,817.00
2023-03-29T08:25:18.213Z,907.00
2023-03-29T08:26:18.201Z,916.00
2023-03-29T08:27:18.207Z,936.00
2023-03-29T08:28:18.216Z,974.00
2023-03-29T08:29:18.213Z,1016.00
2023-03-29T08:30:18.224Z,1069.00
2023-03-29T08:31:18.242Z,1123.00
2023-03-29T08:32:18.220Z,1171.00
2023-03-29T08:33:18.287Z,1221.00
2023-03-29T08:34:18.217Z,1260.00
2023-03-29T08:35:18.229Z,1307.00
2023-03-29T08:36:18.290Z,1327.00
2023-03-29T08:37:18.216Z,1358.00
2023-03-29T08:38:18.225Z,1395.00
2023-03-29T08:39:19.540Z,1419.00
2023-03-29T08:40:18.217Z,1461.00
2023-03-29T08:41:18.211Z,1486.00
2023-03-29T08:42:18.204Z,1506.00
2023-03-29T08:43:18.228Z,1515.00
2023-03-29T08:44:18.196Z,1545.00
2023-03-29T08:45:18.188Z,1573.00
2023-03-29T08:46:18.242Z,1595.00
2023-03-29T08:47:18.176Z,1618.00
2023-03-29T08:48:18.164Z,1641.00
2023-03-29T08:49:18.155Z,1661.00
2023-03-29T08:50:18.137Z,1678.00
2023-03-29T08:51:18.128Z,1699.00
2023-03-29T08:52:18.118Z,1725.00
2023-03-29T08:53:18.107Z,1753.00
2023-03-29T08:54:18.089Z,1756.00
2023-03-29T08:55:18.071Z,1785.00
2023-03-29T08:56:18.056Z,1792.00
2023-03-29T08:57:18.106Z,1813.00
2023-03-29T08:58:18.027Z,1828.00
2023-03-29T08:59:18.028Z,1835.00
2023-03-29T09:00:18.006Z,1860.00
2023-03-29T09:01:18.020Z,1883.00
2023-03-29T09:02:18.076Z,1901.00
2023-03-29T09:03:17.995Z,1903.00
2023-03-29T09:04:17.917Z,1907.00
2023-03-29T09:05:17.895Z,1931.00
2023-03-29T09:06:17.878Z,1947.00
2023-03-29T09:07:17.859Z,1963.00
2023-03-29T09:08:17.867Z,1976.00
2023-03-29T09:09:17.825Z,1988.00
2023-03-29T09:10:17.845Z,2017.00
2023-03-29T09:11:17.868Z,2031.00
2023-03-29T09:12:17.943Z,2053.00
2023-03-29T09:13:18.075Z,2061.00
2023-03-29T09:14:18.009Z,2074.00
2023-03-29T09:15:18.032Z,2089.00
2023-03-29T09:16:18.236Z,2105.00
2023-03-29T09:17:18.119Z,2086.00
2023-03-29T09:18:18.165Z,2093.00
2023-03-29T09:19:18.216Z,2100.00
2023-03-29T09:20:18.373Z,2104.00
2023-03-29T09:21:18.271Z,2105.00
2023-03-29T09:22:18.317Z,2102.00
2023-03-29T09:23:18.362Z,2089.00
2023-03-29T09:24:18.416Z,2106.00
2023-03-29T09:25:18.452Z,2130.00
2023-03-29T09:26:18.491Z,2137.00
2023-03-29T09:27:18.531Z,2159.00
2023-03-29T09:28:18.567Z,2163.00
2023-03-29T09:29:18.594Z,2167.00
2023-03-29T09:30:18.676Z,2185.00
2023-03-29T09:31:18.686Z,2185.00
2023-03-29T09:32:18.704Z,2194.00
2023-03-29T09:33:18.749Z,2201.00
2023-03-29T09:34:18.787Z,2223.00
2023-03-29T09:35:18.945Z,2208.00
2023-03-29T09:36:18.871Z,2212.00
2023-03-29T09:37:18.896Z,2220.00
2023-03-29T09:38:18.934Z,2222.00
2023-03-29T09:39:18.975Z,2226.00
2023-03-29T09:40:19.010Z,2223.00
2023-03-29T09:41:19.063Z,2218.00
2023-03-29T09:42:19.114Z,2225.00
2023-03-29T09:43:19.145Z,2229.00
2023-03-29T09:44:30.290Z,2248.00
2023-03-29T09:45:20.144Z,2249.00
2023-03-29T09:46:19.222Z,2253.00
2023-03-29T09:47:19.102Z,2256.00
2023-03-29T09:48:19.078Z,2277.00
2023-03-29T09:49:19.055Z,2300.00
2023-03-29T09:50:30.180Z,2315.00
2023-03-29T09:51:20.009Z,2317.00
2023-03-29T09:52:18.989Z,2323.00
2023-03-29T09:53:18.975Z,2339.00
2023-03-29T09:54:18.945Z,2359.00
2023-03-29T09:55:18.934Z,2407.00
2023-03-29T09:56:18.902Z,2402.00
2023-03-29T09:57:18.945Z,2431.00
2023-03-29T09:58:18.872Z,2444.00
2023-03-29T09:59:18.834Z,2465.00
2023-03-29T10:00:18.821Z,2492.00
2023-03-29T10:01:18.852Z,2536.00
2023-03-29T10:02:18.769Z,2562.00
2023-03-29T10:03:18.749Z,2561.00
2023-03-29T10:04:18.775Z,2579.00
2023-03-29T10:05:18.719Z,2586.00
2023-03-29T10:06:18.726Z,2583.00
2023-03-29T10:07:18.771Z,2618.00
2023-03-29T10:08:19.599Z,2655.00
2023-03-29T10:09:18.738Z,2677.00
2023-03-29T10:10:18.751Z,2662.00
2023-03-29T10:11:18.761Z,2633.00
2023-03-29T10:12:18.764Z,2621.00
2023-03-29T10:13:18.781Z,2614.00
2023-03-29T10:14:18.779Z,2583.00
2023-03-29T10:15:29.424Z,2400.00
2023-03-29T10:16:19.787Z,2253.00
2023-03-29T10:17:18.727Z,2052.00
2023-03-29T10:18:18.702Z,1792.00
2023-03-29T10:19:18.692Z,1645.00
2023-03-29T10:20:18.658Z,1584.00
2023-03-29T10:21:19.354Z,1476.00
2023-03-29T10:22:18.612Z,1360.00
2023-03-29T10:23:18.589Z,1226.00
2023-03-29T10:24:18.585Z,1134.00
2023-03-29T10:25:18.576Z,1139.00
2023-03-29T10:26:18.538Z,1029.00
2023-03-29T10:27:18.516Z,1013.00
2023-03-29T10:28:18.517Z,1093.00
2023-03-29T10:29:18.500Z,1055.00
2023-03-29T10:30:18.469Z,1155.00
2023-03-29T10:31:18.490Z,1256.00
2023-03-29T10:32:18.437Z,1358.00
2023-03-29T10:33:18.416Z,1463.00
2023-03-29T10:34:18.438Z,1503.00
2023-03-29T10:35:18.448Z,1525.00
2023-03-29T10:36:18.502Z,1545.00
2023-03-29T10:37:18.496Z,1560.00
2023-03-29T10:38:18.512Z,1555.00
2023-03-29T10:39:18.590Z,1557.00
2023-03-29T10:40:18.593Z,1565.00
2023-03-29T10:41:18.627Z,1567.00
2023-03-29T10:42:18.679Z,1565.00
2023-03-29T10:43:18.712Z,1590.00
2023-03-29T10:44:18.744Z,1592.00
2023-03-29T10:45:18.803Z,1586.00
2023-03-29T10:46:18.860Z,1578.00
2023-03-29T10:47:18.859Z,1591.00
2023-03-29T10:48:18.904Z,1583.00
2023-03-29T10:49:19.041Z,1574.00
2023-03-29T10:50:18.947Z,1533.00
2023-03-29T10:51:19.873Z,1538.00
2023-03-29T10:52:19.019Z,1562.00
2023-03-29T10:53:19.026Z,1549.00
2023-03-29T10:54:19.054Z,1557.00
2023-03-29T10:55:19.177Z,1559.00
2023-03-29T10:56:19.128Z,1556.00
2023-03-29T10:57:20.369Z,1549.00
2023-03-29T10:58:19.092Z,1552.00
2023-03-29T10:59:19.072Z,1539.00
2023-03-29T11:00:19.048Z,1491.00
2023-03-29T11:01:19.022Z,1377.00
2023-03-29T11:02:19.010Z,1358.00
2023-03-29T11:03:21.449Z,1438.00
2023-03-29T11:04:18.921Z,1440.00
2023-03-29T11:05:18.896Z,1442.00
2023-03-29T11:06:18.870Z,1395.00
2023-03-29T11:07:18.842Z,1215.00
2023-03-29T11:08:18.814Z,1142.00
2023-03-29T11:09:18.798Z,1213.00
2023-03-29T11:10:18.761Z,1309.00
2023-03-29T11:11:18.726Z,1346.00
2023-03-29T11:12:18.723Z,1340.00
2023-03-29T11:13:18.681Z,1329.00
2023-03-29T11:14:18.657Z,1328.00
2023-03-29T11:15:18.633Z,1339.00
2023-03-29T11:16:18.652Z,1330.00
2023-03-29T11:17:18.699Z,1329.00
2023-03-29T11:18:18.566Z,1343.00
2023-03-29T11:19:18.540Z,1333.00
2023-03-29T11:20:18.512Z,1338.00
2023-03-29T11:21:18.475Z,1339.00
2023-03-29T11:22:18.464Z,1330.00
2023-03-29T11:23:18.438Z,1345.00
2023-03-29T11:24:18.417Z,1324.00
2023-03-29T11:25:18.389Z,1329.00
2023-03-29T11:26:18.384Z,1324.00
2023-03-29T11:27:18.347Z,1330.00
2023-03-29T11:28:18.310Z,1317.00
2023-03-29T11:29:18.292Z,1323.00
2023-03-29T11:30:18.277Z,1319.00
2023-03-29T11:31:18.256Z,1325.00
2023-03-29T11:32:18.268Z,1321.00
2023-03-29T11:33:18.194Z,1313.00
2023-03-29T11:34:18.182Z,1317.00
2023-03-29T11:35:18.153Z,1314.00
2023-03-29T11:36:18.204Z,1320.00
2023-03-29T11:37:18.127Z,1299.00
2023-03-29T11:38:18.075Z,1263.00
2023-03-29T11:39:18.052Z,1221.00
2023-03-29T11:40:18.046Z,1166.00
2023-03-29T11:41:18.017Z,1162.00
2023-03-29T11:42:17.998Z,1298.00
2023-03-29T11:43:17.962Z,1358.00
2023-03-29T11:44:17.966Z,1281.00
2023-03-29T11:45:17.937Z,1230.00
2023-03-29T11:46:17.963Z,1223.00
2023-03-29T11:47:17.903Z,1219.00
2023-03-29T11:48:17.913Z,1204.00
2023-03-29T11:49:17.868Z,1194.00
2023-03-29T11:50:17.857Z,1175.00
2023-03-29T11:51:17.834Z,1165.00
2023-03-29T11:52:17.839Z,1150.00
2023-03-29T11:53:17.803Z,1150.00
2023-03-29T11:54:17.773Z,1152.00
2023-03-29T11:55:17.760Z,1154.00
2023-03-29T11:56:17.862Z,1138.00
2023-03-29T11:57:17.750Z,1142.00
2023-03-29T11:58:17.766Z,1138.00
2023-03-29T11:59:17.684Z,1128.00
2023-03-29T12:00:17.673Z,1130.00
2023-03-29T12:01:17.653Z,1114.00
2023-03-29T12:02:17.683Z,1116.00
2023-03-29T12:03:17.695Z,1121.00
2023-03-29T12:04:17.703Z,1113.00
2023-03-29T12:05:17.588Z,1098.00
2023-03-29T12:06:17.556Z,1097.00
2023-03-29T12:07:17.530Z,1093.00
2023-03-29T12:08:17.521Z,1099.00
2023-03-29T12:09:17.480Z,1098.00
2023-03-29T12:10:17.467Z,1094.00
2023-03-29T12:11:17.475Z,1097.00
2023-03-29T12:12:17.437Z,1103.00
2023-03-29T12:13:17.410Z,1093.00
2023-03-29T12:14:17.386Z,1084.00
2023-03-29T12:15:17.365Z,1068.00
2023-03-29T12:16:17.349Z,1058.00
2023-03-29T12:17:17.318Z,1054.00
2023-03-29T12:18:17.317Z,1054.00